Time;durP1;ratioP1;P1;durP2;ratioP2;P2;SDS_P1;SDS_P2;PMS_P1;PMS_P2;Temp;Humidity;BMP_temperature;BMP_pressure;BME280_temperature;BME280_humidity;BME280_pressure;Samples;Min_cycle;Max_cycle;Signal;HPM_P1;HPM_P2
2023/01/25 00:00:30;;;;;;;12.13;7.88;;;;;;;-0.41;95.56;103095.94;4971019;28;20549;-76
2023/01/25 00:02:57;;;;;;;12.43;8.60;;;;;;;-0.41;96.16;103080.50;4975541;28;20064;-76
2023/01/25 00:05:24;;;;;;;11.65;7.95;;;;;;;-0.42;95.46;103069.28;4996835;28;20390;-76
2023/01/25 00:07:50;;;;;;;11.18;8.10;;;;;;;-0.44;95.93;103072.53;4962475;28;20512;-76
2023/01/25 00:10:17;;;;;;;10.70;7.22;;;;;;;-0.48;95.86;103071.44;4967916;28;20048;-76
2023/01/25 00:12:43;;;;;;;10.80;7.28;;;;;;;-0.48;96.36;103066.28;4958610;28;20038;-78
2023/01/25 00:15:10;;;;;;;13.02;7.75;;;;;;;-0.49;96.03;103064.50;4983681;28;20054;-77
2023/01/25 00:17:37;;;;;;;12.82;8.50;;;;;;;-0.50;95.68;103057.53;4960038;28;20046;-75
2023/01/25 00:20:03;;;;;;;14.45;8.65;;;;;;;-0.55;96.53;103064.94;4971912;28;20046;-77
2023/01/25 00:22:30;;;;;;;12.55;8.40;;;;;;;-0.60;96.08;103052.47;4972680;28;20058;-77
2023/01/25 00:24:57;;;;;;;13.27;8.13;;;;;;;-0.57;96.38;103053.63;4963309;28;20658;-76
2023/01/25 00:27:29;;;;;;;13.13;8.90;;;;;;;-0.54;96.14;103052.94;4980210;28;20049;-78
2023/01/25 00:29:56;;;;;;;11.93;8.65;;;;;;;-0.51;95.92;103056.66;4963466;28;20445;-76
2023/01/25 00:32:22;;;;;;;12.57;8.80;;;;;;;-0.53;95.40;103050.47;4981621;28;20449;-76
2023/01/25 00:34:51;;;;;;;12.65;7.97;;;;;;;-0.54;95.46;103048.69;4982852;28;20042;-76
2023/01/25 00:37:25;;;;;;;12.30;8.65;;;;;;;-0.53;95.96;103049.59;4977921;28;20125;-76
2023/01/25 00:39:52;;;;;;;13.15;8.55;;;;;;;-0.53;96.03;103042.78;4956787;28;20112;-77
2023/01/25 00:42:20;;;;;;;13.05;8.45;;;;;;;-0.52;95.90;103043.69;4976487;28;20053;-78
2023/01/25 00:44:47;;;;;;;13.13;9.45;;;;;;;-0.55;95.57;103044.34;4956986;28;20428;-77
2023/01/25 00:47:16;;;;;;;11.65;9.50;;;;;;;-0.60;96.34;103040.53;4940085;28;20134;-77
2023/01/25 00:49:44;;;;;;;11.75;8.48;;;;;;;-0.59;96.57;103039.72;4965357;28;20053;-77
2023/01/25 00:52:11;;;;;;;11.50;7.90;;;;;;;-0.58;96.77;103038.94;4968897;28;20461;-77
2023/01/25 00:54:38;;;;;;;10.45;6.57;;;;;;;-0.55;96.63;103039.19;4964395;28;20042;-77
2023/01/25 00:57:05;;;;;;;10.85;7.63;;;;;;;-0.57;96.51;103029.56;4981769;28;20054;-79
2023/01/25 00:59:32;;;;;;;11.68;8.15;;;;;;;-0.60;96.74;103031.91;4975941;28;20042;-76
2023/01/25 01:02:00;;;;;;;12.23;7.72;;;;;;;-0.68;97.29;103032.22;4956077;28;20055;-76
2023/01/25 01:04:27;;;;;;;11.48;7.35;;;;;;;-0.69;97.21;103021.84;4978002;28;20094;-76
2023/01/25 01:06:54;;;;;;;12.20;7.78;;;;;;;-0.69;97.95;103027.88;4971558;28;20108;-76
2023/01/25 01:09:23;;;;;;;14.18;8.48;;;;;;;-0.70;97.70;103033.78;4977247;28;20491;-77
2023/01/25 01:11:49;;;;;;;10.48;6.90;;;;;;;-0.73;97.66;103028.41;4985818;28;20473;-76
2023/01/25 01:14:16;;;;;;;14.05;7.60;;;;;;;-0.75;98.04;103026.50;4978241;28;20054;-76
2023/01/25 01:16:42;;;;;;;9.68;6.97;;;;;;;-0.79;97.71;103027.94;5014746;28;20423;-76
2023/01/25 01:19:09;;;;;;;12.27;6.75;;;;;;;-0.82;98.39;103031.94;4948057;28;20050;-76
2023/01/25 01:21:35;;;;;;;13.88;7.32;;;;;;;-0.82;98.64;103035.44;4963830;28;20398;-76
2023/01/25 01:24:02;;;;;;;12.02;8.15;;;;;;;-0.81;98.63;103031.19;5002057;28;20042;-75
2023/01/25 01:26:28;;;;;;;9.88;6.60;;;;;;;-0.79;99.56;103032.22;4965387;28;20050;-77
2023/01/25 01:28:55;;;;;;;12.50;7.32;;;;;;;-0.76;99.02;103027.28;4970071;28;20084;-78
2023/01/25 01:31:24;;;;;;;12.15;7.88;;;;;;;-0.70;99.02;103025.19;4966736;28;20481;-77
2023/01/25 01:33:57;;;;;;;11.40;7.50;;;;;;;-0.70;98.70;103027.75;4978111;28;20062;-78
2023/01/25 01:36:26;;;;;;;11.77;7.90;;;;;;;-0.70;98.89;103020.91;4974023;28;20038;-76
2023/01/25 01:38:53;;;;;;;8.13;6.32;;;;;;;-0.68;98.77;103021.03;4965199;28;20049;-77
2023/01/25 01:41:20;;;;;;;10.68;7.60;;;;;;;-0.71;99.46;103011.41;4978789;28;20043;-77
2023/01/25 01:43:47;;;;;;;11.95;7.88;;;;;;;-0.72;99.44;103003.56;4978159;28;20046;-77
2023/01/25 01:46:25;;;;;;;10.88;6.80;;;;;;;-0.78;99.44;103006.59;4969747;28;20570;-76
2023/01/25 01:48:59;;;;;;;13.55;8.52;;;;;;;-0.72;100.00;102996.78;4971071;28;20410;-75
2023/01/25 01:51:47;;;;;;;10.15;6.80;;;;;;;-0.78;99.67;103000.53;4975561;28;20057;-77
2023/01/25 01:54:24;;;;;;;14.10;7.68;;;;;;;-0.81;100.00;102995.19;4959696;28;20050;-76
2023/01/25 01:57:07;;;;;;;13.27;7.72;;;;;;;-0.77;100.00;102999.75;4957508;28;20073;-77
2023/01/25 01:59:45;;;;;;;11.32;8.27;;;;;;;-0.73;100.00;102987.28;4963942;28;20039;-76
2023/01/25 02:02:14;;;;;;;12.57;7.45;;;;;;;-0.65;100.00;102984.34;4972946;28;20051;-77
2023/01/25 02:04:43;;;;;;;10.05;7.32;;;;;;;-0.68;100.00;102980.78;4958881;28;20042;-78
2023/01/25 02:07:18;;;;;;;13.55;9.18;;;;;;;-0.74;100.00;102977.75;4960481;28;20217;-77
2023/01/25 02:09:48;;;;;;;15.10;9.00;;;;;;;-0.76;100.00;102979.28;4979753;28;20041;-78
2023/01/25 02:12:15;;;;;;;14.68;8.68;;;;;;;-0.78;100.00;102982.53;4964567;28;20425;-77
2023/01/25 02:14:48;;;;;;;16.15;8.38;;;;;;;-0.81;100.00;102984.88;4968857;28;20039;-76
2023/01/25 02:17:15;;;;;;;17.67;8.57;;;;;;;-0.86;100.00;102982.88;4977162;28;20617;-76
2023/01/25 02:20:15;;;;;;;15.13;8.95;;;;;;;-0.86;100.00;102981.97;4979441;28;20107;-78
2023/01/25 02:22:59;;;;;;;15.65;10.95;;;;;;;-0.78;100.00;102985.09;4991738;28;20054;-77
2023/01/25 02:25:26;;;;;;;15.52;9.32;;;;;;;-0.69;100.00;102983.25;4965674;28;20137;-76
2023/01/25 02:28:00;;;;;;;15.75;9.93;;;;;;;-0.65;100.00;102981.78;4969079;28;20054;-77
2023/01/25 02:30:28;;;;;;;17.30;10.32;;;;;;;-0.59;100.00;102985.69;4977195;28;20341;-78
2023/01/25 02:32:54;;;;;;;16.75;9.05;;;;;;;-0.65;100.00;102987.84;4956385;28;20055;-77
2023/01/25 02:35:25;;;;;;;15.68;9.35;;;;;;;-0.67;100.00;102987.69;4952425;28;20046;-77
2023/01/25 02:37:52;;;;;;;13.90;7.82;;;;;;;-0.66;100.00;102978.31;4961733;28;20042;-75
2023/01/25 02:40:19;;;;;;;15.13;8.93;;;;;;;-0.61;100.00;102982.13;4983537;28;20429;-75
2023/01/25 02:42:46;;;;;;;15.43;8.15;;;;;;;-0.58;100.00;102973.75;4977092;28;20046;-77
2023/01/25 02:45:17;;;;;;;15.73;8.88;;;;;;;-0.61;100.00;102977.00;4954271;28;20038;-76
2023/01/25 02:47:44;;;;;;;13.95;9.68;;;;;;;-0.65;100.00;102971.50;4983931;28;20042;-77
2023/01/25 02:50:11;;;;;;;16.13;9.68;;;;;;;-0.67;100.00;102968.81;4950553;28;20061;-76
2023/01/25 02:52:37;;;;;;;12.40;9.00;;;;;;;-0.64;100.00;102968.16;4967664;28;20050;-78
2023/01/25 02:55:04;;;;;;;13.57;7.75;;;;;;;-0.66;100.00;102965.47;4973295;28;20042;-76
2023/01/25 02:57:31;;;;;;;13.50;7.45;;;;;;;-0.68;100.00;102961.88;4969183;28;20051;-77
2023/01/25 02:59:57;;;;;;;11.35;7.47;;;;;;;-0.69;100.00;102953.28;4966410;28;20049;-76
2023/01/25 03:02:24;;;;;;;12.32;7.75;;;;;;;-0.76;100.00;102947.56;4969298;28;20046;-77
2023/01/25 03:04:51;;;;;;;12.15;7.55;;;;;;;-0.82;100.00;102941.94;4966953;28;20058;-80
2023/01/25 03:07:17;;;;;;;11.65;8.13;;;;;;;-0.86;100.00;102936.59;4973724;28;20097;-76
2023/01/25 03:09:44;;;;;;;13.35;8.25;;;;;;;-0.85;100.00;102935.81;4965215;28;20050;-78
2023/01/25 03:12:10;;;;;;;14.32;7.63;;;;;;;-0.81;100.00;102934.34;4956937;28;20051;-76
2023/01/25 03:14:37;;;;;;;14.93;9.63;;;;;;;-0.83;100.00;102925.63;4977084;28;20049;-78
2023/01/25 03:17:04;;;;;;;13.88;7.97;;;;;;;-0.79;100.00;102935.38;4964267;28;20058;-76
2023/01/25 03:19:30;;;;;;;11.38;7.75;;;;;;;-0.81;100.00;102929.19;4972741;28;20042;-75
2023/01/25 03:21:57;;;;;;;12.45;7.32;;;;;;;-0.88;100.00;102927.84;4974629;28;20054;-76
2023/01/25 03:24:24;;;;;;;13.60;8.27;;;;;;;-0.88;100.00;102922.72;4955614;28;20070;-77
2023/01/25 03:29:35;;;;;;;11.05;5.95;;;;;;;-0.91;100.00;102929.28;4979289;28;20030;-77
2023/01/25 03:32:01;;;;;;;9.27;6.05;;;;;;;-0.94;100.00;102927.41;4971295;28;20061;-76
2023/01/25 03:34:28;;;;;;;9.68;5.80;;;;;;;-1.00;100.00;102921.81;4968901;28;20764;-76
2023/01/25 03:36:54;;;;;;;11.10;6.07;;;;;;;-1.02;100.00;102916.56;4966456;28;20331;-76
2023/01/25 03:39:21;;;;;;;7.70;5.60;;;;;;;-1.04;100.00;102917.22;4964798;28;20105;-76
2023/01/25 03:41:47;;;;;;;10.05;6.43;;;;;;;-1.03;100.00;102919.91;4969739;28;20030;-76
2023/01/25 03:44:14;;;;;;;8.18;6.05;;;;;;;-0.94;100.00;102922.28;4975692;28;20050;-76
2023/01/25 03:46:42;;;;;;;9.57;5.85;;;;;;;-0.89;100.00;102917.47;4970058;28;20370;-77
2023/01/25 03:49:09;;;;;;;8.93;5.55;;;;;;;-0.95;100.00;102899.91;4984243;28;20046;-76
2023/01/25 03:51:36;;;;;;;10.50;7.03;;;;;;;-0.93;100.00;102908.59;4952755;28;20050;-77
2023/01/25 03:54:02;;;;;;;7.03;4.68;;;;;;;-0.96;100.00;102900.69;4981291;28;20046;-76
2023/01/25 03:56:29;;;;;;;9.15;5.97;;;;;;;-1.00;100.00;102896.09;4986905;28;20043;-77
2023/01/25 03:58:55;;;;;;;10.90;6.05;;;;;;;-1.01;100.00;102890.03;4975359;28;20046;-79
2023/01/25 04:01:22;;;;;;;9.68;5.40;;;;;;;-1.00;100.00;102893.53;4977239;28;20042;-80
2023/01/25 04:03:49;;;;;;;9.68;5.00;;;;;;;-0.96;100.00;102890.41;4982480;28;20031;-77
2023/01/25 04:06:15;;;;;;;9.70;6.45;;;;;;;-0.92;100.00;102892.41;4969679;28;20097;-76
2023/01/25 04:08:42;;;;;;;7.55;5.75;;;;;;;-0.93;100.00;102895.75;4968719;28;20058;-76
2023/01/25 04:11:10;;;;;;;7.90;5.32;;;;;;;-0.90;100.00;102893.44;4984535;28;20105;-78
2023/01/25 04:13:38;;;;;;;9.63;5.60;;;;;;;-0.94;100.00;102888.84;4969593;28;20049;-80
2023/01/25 04:16:08;;;;;;;8.18;5.40;;;;;;;-0.96;100.00;102885.25;4951653;28;20142;-77
2023/01/25 04:18:34;;;;;;;8.02;5.00;;;;;;;-0.92;100.00;102878.66;4980535;28;20499;-78
2023/01/25 04:21:01;;;;;;;8.30;6.22;;;;;;;-0.85;100.00;102879.25;4953359;28;20054;-78
2023/01/25 04:23:27;;;;;;;7.60;5.82;;;;;;;-0.89;100.00;102871.16;4970421;28;20137;-76
2023/01/25 04:26:06;;;;;;;8.07;5.32;;;;;;;-0.94;100.00;102867.38;4968933;28;20054;-74
2023/01/25 04:28:35;;;;;;;8.35;5.63;;;;;;;-0.92;100.00;102865.81;4968860;28;20046;-78
2023/01/25 04:31:04;;;;;;;7.70;4.72;;;;;;;-0.95;100.00;102863.00;4977572;28;20058;-77
2023/01/25 04:33:32;;;;;;;8.93;6.05;;;;;;;-0.95;100.00;102858.78;4971176;28;20045;-77
2023/01/25 04:36:02;;;;;;;11.23;7.38;;;;;;;-0.91;100.00;102855.63;4971663;28;20110;-77
2023/01/25 04:38:29;;;;;;;8.93;4.78;;;;;;;-0.88;100.00;102857.53;4983696;28;20065;-76
2023/01/25 04:40:55;;;;;;;8.13;5.65;;;;;;;-0.88;100.00;102861.00;4977096;28;20077;-78
2023/01/25 04:43:23;;;;;;;12.00;6.22;;;;;;;-0.88;100.00;102858.41;4973241;28;20066;-77
2023/01/25 04:45:57;;;;;;;8.77;5.20;;;;;;;-0.92;100.00;102851.28;4978322;28;20057;-77
2023/01/25 04:48:27;;;;;;;7.95;5.07;;;;;;;-0.91;100.00;102855.63;4961779;28;20050;-77
2023/01/25 04:50:54;;;;;;;9.55;5.63;;;;;;;-0.86;100.00;102858.53;4978733;28;20050;-77
2023/01/25 04:53:20;;;;;;;11.63;6.68;;;;;;;-0.82;100.00;102857.09;4969880;28;20053;-77
2023/01/25 04:55:47;;;;;;;9.80;5.30;;;;;;;-0.78;100.00;102848.81;4967905;28;20074;-77
2023/01/25 04:58:18;;;;;;;8.77;4.90;;;;;;;-0.78;100.00;102848.81;4965392;28;20130;-78
2023/01/25 05:00:48;;;;;;;19.17;10.02;;;;;;;-0.80;100.00;102848.69;4970254;28;20163;-77
2023/01/25 05:03:18;;;;;;;10.00;5.78;;;;;;;-0.83;100.00;102840.78;4968499;28;20098;-78
2023/01/25 05:05:51;;;;;;;10.20;6.00;;;;;;;-0.87;100.00;102844.78;4965110;28;20501;-77
2023/01/25 05:08:18;;;;;;;14.57;6.50;;;;;;;-0.81;100.00;102843.44;4966270;28;20043;-78
2023/01/25 05:10:47;;;;;;;10.57;5.95;;;;;;;-0.73;100.00;102844.88;4990735;28;20043;-78
2023/01/25 05:13:15;;;;;;;13.65;6.88;;;;;;;-0.67;100.00;102838.50;4965280;28;20130;-77
2023/01/25 05:15:46;;;;;;;9.90;5.55;;;;;;;-0.70;100.00;102843.44;4974000;28;20141;-78
2023/01/25 05:18:12;;;;;;;11.52;6.47;;;;;;;-0.76;100.00;102840.41;4979821;28;20489;-77
2023/01/25 05:20:42;;;;;;;9.95;6.47;;;;;;;-0.75;100.00;102837.06;4952087;28;20118;-77
2023/01/25 05:23:15;;;;;;;12.52;7.10;;;;;;;-0.74;100.00;102832.84;4955865;28;20498;-77
2023/01/25 05:28:30;;;;;;;14.20;6.78;;;;;;;-0.70;100.00;102833.16;4937140;28;19983;-78
2023/01/25 05:30:59;;;;;;;12.27;8.43;;;;;;;-0.65;100.00;102837.72;4952112;28;20046;-78
2023/01/25 05:33:26;;;;;;;10.93;7.60;;;;;;;-0.62;100.00;102830.25;4929057;28;20089;-78
2023/01/25 05:35:57;;;;;;;15.75;7.70;;;;;;;-0.64;100.00;102824.09;4945587;28;20069;-76
2023/01/25 05:38:29;;;;;;;11.73;5.85;;;;;;;-0.75;100.00;102813.91;4932628;28;20053;-77
2023/01/25 05:41:16;;;;;;;13.90;7.70;;;;;;;-0.82;100.00;102822.00;4950246;28;20050;-77
2023/01/25 05:46:50;;;;;;;10.73;7.60;;;;;;;-0.87;100.00;102820.75;4953615;28;20059;-76
2023/01/25 05:52:17;;;;;;;11.82;7.55;;;;;;;-0.76;100.00;102813.81;4939399;28;20713;-78
2023/01/25 05:54:43;;;;;;;20.60;9.05;;;;;;;-0.70;100.00;102819.41;4947121;28;20047;-76
2023/01/25 05:57:49;;;;;;;16.23;9.18;;;;;;;-0.64;100.00;102813.81;4954920;28;20035;-77
2023/01/25 06:00:33;;;;;;;19.45;9.82;;;;;;;-0.60;100.00;102815.81;4945765;28;20106;-76
2023/01/25 06:03:14;;;;;;;17.25;9.00;;;;;;;-0.60;100.00;102810.66;4945408;28;20071;-77
2023/01/25 06:05:49;;;;;;;16.40;8.35;;;;;;;-0.62;100.00;102801.97;4946055;28;20035;-78
2023/01/25 06:08:16;;;;;;;15.90;9.93;;;;;;;-0.62;100.00;102812.25;4959192;28;20520;-77
2023/01/25 06:10:46;;;;;;;21.35;10.38;;;;;;;-0.60;100.00;102805.53;4945188;28;20054;-79
2023/01/25 06:13:22;;;;;;;16.63;9.40;;;;;;;-0.58;100.00;102797.13;4947432;28;20066;-77
2023/01/25 06:15:59;;;;;;;16.85;9.93;;;;;;;-0.55;100.00;102796.44;4950402;28;20049;-77
2023/01/25 06:18:26;;;;;;;15.57;9.48;;;;;;;-0.53;100.00;102800.03;4954488;28;20055;-81
2023/01/25 06:21:00;;;;;;;18.13;9.48;;;;;;;-0.55;100.00;102794.78;4925840;28;20063;-76
2023/01/25 06:23:59;;;;;;;21.10;10.73;;;;;;;-0.57;100.00;102791.19;4971250;28;20979;-76
2023/01/25 06:29:27;;;;;;;18.73;9.75;;;;;;;-0.60;100.00;102788.44;4960416;28;20061;-78
2023/01/25 06:32:02;;;;;;;18.52;9.95;;;;;;;-0.62;100.00;102789.09;4968247;28;20053;-78
2023/01/25 06:34:29;;;;;;;18.05;9.80;;;;;;;-0.67;100.00;102781.91;4980593;28;20046;-76
2023/01/25 06:36:55;;;;;;;18.17;9.10;;;;;;;-0.71;100.00;102779.91;4964864;28;20791;-77
2023/01/25 06:39:22;;;;;;;18.02;9.52;;;;;;;-0.72;100.00;102791.00;4952066;28;20113;-78
2023/01/25 06:41:48;;;;;;;23.00;10.52;;;;;;;-0.75;100.00;102787.31;4962509;28;20054;-77
2023/01/25 06:44:17;;;;;;;19.00;10.48;;;;;;;-0.79;100.00;102793.91;4967743;28;20054;-77
2023/01/25 06:46:44;;;;;;;20.63;10.05;;;;;;;-0.75;100.00;102792.47;4963066;28;20076;-76
2023/01/25 06:49:10;;;;;;;26.90;11.57;;;;;;;-0.77;100.00;102799.16;4965764;28;20048;-79
2023/01/25 06:51:37;;;;;;;18.45;9.57;;;;;;;-0.81;100.00;102785.19;4969511;28;20042;-76
2023/01/25 06:54:04;;;;;;;16.85;8.50;;;;;;;-0.84;100.00;102787.53;4980713;28;20516;-76
2023/01/25 06:56:31;;;;;;;18.33;11.32;;;;;;;-0.83;100.00;102797.06;4990057;28;20034;-77
2023/01/25 06:58:57;;;;;;;21.38;10.95;;;;;;;-0.82;100.00;102793.72;4962527;28;20133;-78
2023/01/25 07:01:29;;;;;;;19.58;10.98;;;;;;;-0.78;100.00;102803.44;4969340;28;20054;-77
2023/01/25 07:03:58;;;;;;;21.10;10.75;;;;;;;-0.80;100.00;102792.13;4956437;28;20154;-78
2023/01/25 07:06:27;;;;;;;23.13;12.98;;;;;;;-0.75;100.00;102788.22;4957921;28;20234;-77
2023/01/25 07:08:53;;;;;;;22.23;11.02;;;;;;;-0.73;100.00;102790.88;4960321;28;20575;-77
2023/01/25 07:11:20;;;;;;;16.83;10.48;;;;;;;-0.75;100.00;102793.34;4969621;28;20048;-76
2023/01/25 07:13:47;;;;;;;13.20;7.50;;;;;;;-0.76;100.00;102790.69;4962683;28;20376;-76
2023/01/25 07:16:20;;;;;;;16.50;8.65;;;;;;;-0.71;100.00;102792.78;4972512;28;20097;-78
2023/01/25 07:18:47;;;;;;;18.40;9.27;;;;;;;-0.69;100.00;102792.91;4970467;28;20074;-76
2023/01/25 07:21:19;;;;;;;17.67;9.50;;;;;;;-0.73;100.00;102786.66;4965449;28;20042;-77
2023/01/25 07:23:46;;;;;;;17.90;10.60;;;;;;;-0.71;100.00;102789.31;4954422;28;20054;-77
2023/01/25 07:26:26;;;;;;;22.05;10.38;;;;;;;-0.68;100.00;102776.66;4970466;28;20053;-78
2023/01/25 07:28:53;;;;;;;19.02;10.90;;;;;;;-0.67;100.00;102783.59;4958455;28;20352;-77
2023/01/25 07:31:21;;;;;;;20.63;9.93;;;;;;;-0.67;100.00;102786.19;4972427;28;20047;-77
2023/01/25 07:33:53;;;;;;;14.88;9.05;;;;;;;-0.67;100.00;102787.06;4971007;28;20047;-76
2023/01/25 07:36:20;;;;;;;20.10;10.68;;;;;;;-0.72;100.00;102790.09;4992783;28;20042;-76
2023/01/25 07:38:47;;;;;;;17.27;9.45;;;;;;;-0.75;100.00;102790.78;4967133;28;20049;-77
2023/01/25 07:41:15;;;;;;;22.23;9.60;;;;;;;-0.80;100.00;102797.25;4947954;28;20047;-76
2023/01/25 07:43:42;;;;;;;15.43;9.02;;;;;;;-0.79;100.00;102787.88;4970099;28;20396;-76
2023/01/25 07:46:11;;;;;;;19.13;10.43;;;;;;;-0.81;100.00;102787.75;4969330;28;20404;-76
2023/01/25 07:48:40;;;;;;;16.75;9.13;;;;;;;-0.87;100.00;102788.22;4947104;28;20057;-78
2023/01/25 07:51:21;;;;;;;21.70;10.00;;;;;;;-0.88;100.00;102781.28;4965228;28;20481;-78
2023/01/25 07:53:50;;;;;;;14.95;8.82;;;;;;;-0.82;100.00;102774.78;4980252;28;20042;-75
2023/01/25 07:56:18;;;;;;;19.20;10.45;;;;;;;-0.83;100.00;102771.34;4972790;28;20166;-76
2023/01/25 07:58:46;;;;;;;16.00;10.93;;;;;;;-0.88;100.00;102770.13;4973321;28;20136;-76
2023/01/25 08:01:17;;;;;;;18.45;10.23;;;;;;;-0.85;100.00;102766.09;4975025;28;20050;-75
2023/01/25 08:03:44;;;;;;;16.90;9.05;;;;;;;-0.81;100.00;102771.44;4966442;28;20042;-77
2023/01/25 08:06:11;;;;;;;16.02;9.10;;;;;;;-0.75;100.00;102767.63;4976829;28;20042;-77
2023/01/25 08:08:46;;;;;;;17.20;9.55;;;;;;;-0.69;100.00;102769.75;4969877;28;20413;-77
2023/01/25 08:11:25;;;;;;;14.20;8.60;;;;;;;-0.64;100.00;102770.97;4985702;28;20062;-76
2023/01/25 08:13:52;;;;;;;17.52;9.02;;;;;;;-0.59;100.00;102769.59;4958353;28;20051;-77
2023/01/25 08:16:22;;;;;;;13.95;7.97;;;;;;;-0.54;100.00;102772.50;4959435;28;20448;-77
2023/01/25 08:18:54;;;;;;;17.20;10.07;;;;;;;-0.58;100.00;102776.53;4981211;28;20478;-77
2023/01/25 08:21:23;;;;;;;19.73;10.60;;;;;;;-0.61;100.00;102771.19;4966781;28;20504;-82
2023/01/25 08:23:49;;;;;;;17.70;9.80;;;;;;;-0.58;100.00;102766.25;4978197;28;20051;-77
2023/01/25 08:26:16;;;;;;;17.45;10.27;;;;;;;-0.53;100.00;102770.03;4966423;28;20077;-78
2023/01/25 08:28:43;;;;;;;18.20;9.73;;;;;;;-0.50;100.00;102761.66;4970384;28;20548;-78
2023/01/25 08:31:21;;;;;;;22.02;10.25;;;;;;;-0.55;100.00;102768.16;4977071;28;20150;-78
2023/01/25 08:33:48;;;;;;;17.38;10.10;;;;;;;-0.61;100.00;102765.13;4965271;28;22404;-78
2023/01/25 08:36:17;;;;;;;14.93;9.27;;;;;;;-0.60;100.00;102757.56;4975943;28;20042;-78
2023/01/25 08:38:47;;;;;;;19.05;9.52;;;;;;;-0.64;100.00;102762.34;4961147;28;20042;-81
2023/01/25 08:41:19;;;;;;;15.85;8.70;;;;;;;-0.64;100.00;102755.53;4989349;28;20047;-78
2023/01/25 08:43:46;;;;;;;20.00;9.35;;;;;;;-0.68;100.00;102745.81;4968411;28;20289;-77
2023/01/25 08:46:16;;;;;;;18.33;9.05;;;;;;;-0.69;100.00;102747.50;4965441;28;20058;-79
2023/01/25 08:48:43;;;;;;;13.95;7.85;;;;;;;-0.64;100.00;102734.94;4965224;28;20058;-78
2023/01/25 08:51:14;;;;;;;18.02;10.65;;;;;;;-0.63;100.00;102736.75;4964529;28;20434;-78
2023/01/25 08:53:40;;;;;;;14.82;9.02;;;;;;;-0.62;100.00;102728.25;4948036;28;20053;-77
2023/01/25 08:56:11;;;;;;;16.05;8.52;;;;;;;-0.53;100.00;102730.56;4956762;28;20583;-77
2023/01/25 08:58:41;;;;;;;15.70;10.13;;;;;;;-0.51;100.00;102724.75;4975860;28;20503;-77
2023/01/25 09:01:11;;;;;;;18.25;10.07;;;;;;;-0.48;100.00;102725.72;4962400;28;20051;-77
2023/01/25 09:03:41;;;;;;;16.92;9.15;;;;;;;-0.46;100.00;102722.47;4969719;28;20059;-77
2023/01/25 09:06:08;;;;;;;18.13;10.93;;;;;;;-0.47;100.00;102727.53;4972240;28;20045;-77
2023/01/25 09:08:36;;;;;;;29.23;10.50;;;;;;;-0.52;100.00;102725.53;4957287;28;20043;-77
2023/01/25 09:11:15;;;;;;;18.27;10.38;;;;;;;-0.49;100.00;102723.97;4960690;28;20054;-77
2023/01/25 09:13:42;;;;;;;21.40;10.07;;;;;;;-0.46;100.00;102717.34;4963967;28;20042;-78
2023/01/25 09:16:16;;;;;;;21.83;11.13;;;;;;;-0.45;100.00;102719.13;4967133;28;20457;-79
2023/01/25 09:18:46;;;;;;;18.10;11.32;;;;;;;-0.45;100.00;102706.25;4951605;28;20065;-78
2023/01/25 09:21:17;;;;;;;18.63;10.25;;;;;;;-0.40;100.00;102712.63;4949265;28;20057;-81
2023/01/25 09:23:44;;;;;;;22.52;12.18;;;;;;;-0.34;100.00;102710.47;4950945;28;20058;-78
2023/01/25 09:26:14;;;;;;;21.80;12.38;;;;;;;-0.34;100.00;102713.06;4941928;28;20145;-79
2023/01/25 09:28:41;;;;;;;27.23;12.88;;;;;;;-0.29;100.00;102709.91;4954896;28;20643;-79
2023/01/25 09:31:10;;;;;;;20.45;11.13;;;;;;;-0.26;100.00;102703.28;4962578;28;20057;-77
2023/01/25 09:33:41;;;;;;;21.20;11.23;;;;;;;-0.24;100.00;102701.69;4939828;28;20050;-77
2023/01/25 09:36:08;;;;;;;18.42;9.75;;;;;;;-0.26;100.00;102698.13;4955469;28;20058;-77
2023/01/25 09:38:35;;;;;;;19.95;9.73;;;;;;;-0.36;100.00;102698.28;4949047;28;20039;-78
2023/01/25 09:41:04;;;;;;;20.15;10.93;;;;;;;-0.40;100.00;102706.59;4957041;28;20474;-79
2023/01/25 09:44:12;;;;;;;15.05;8.80;;;;;;;-0.41;100.00;102703.09;4973010;28;20049;-77
2023/01/25 09:46:43;;;;;;;17.27;9.52;;;;;;;-0.36;100.00;102695.72;4963661;28;20043;-77
2023/01/25 09:49:15;;;;;;;19.48;9.18;;;;;;;-0.34;100.00;102686.41;4953940;28;20518;-81
2023/01/25 09:52:17;;;;;;;21.45;11.77;;;;;;;-0.31;100.00;102672.84;4935488;28;20569;-79
2023/01/25 09:54:47;;;;;;;17.52;9.95;;;;;;;-0.29;100.00;102674.75;4940506;28;20058;-77
2023/01/25 09:57:22;;;;;;;19.02;10.75;;;;;;;-0.25;100.00;102673.28;4949967;28;20493;-77
2023/01/25 09:59:52;;;;;;;21.33;9.75;;;;;;;-0.24;100.00;102672.50;4947233;28;20052;-77
2023/01/25 10:02:40;;;;;;;17.67;9.57;;;;;;;-0.23;100.00;102662.31;4950877;28;20046;-78
2023/01/25 10:05:22;;;;;;;17.45;11.32;;;;;;;-0.20;100.00;102649.63;4961221;28;20141;-79
2023/01/25 10:08:04;;;;;;;19.98;10.60;;;;;;;-0.15;100.00;102657.66;4950324;28;20455;-76
2023/01/25 10:10:43;;;;;;;18.73;10.30;;;;;;;-0.17;100.00;102661.81;4970620;28;20047;-77
2023/01/25 10:13:13;;;;;;;20.27;10.40;;;;;;;-0.18;100.00;102653.22;4958054;28;20509;-77
2023/01/25 10:15:44;;;;;;;31.92;11.80;;;;;;;-0.18;100.00;102647.19;4954783;28;20057;-77
2023/01/25 10:18:39;;;;;;;20.92;10.77;;;;;;;-0.22;100.00;102642.59;4973237;28;20528;-76
2023/01/25 10:21:19;;;;;;;26.08;11.00;;;;;;;-0.22;100.00;102646.06;4956649;28;20429;-82
2023/01/25 10:24:10;;;;;;;19.30;10.60;;;;;;;-0.24;100.00;102642.50;4966014;28;20050;-76
2023/01/25 10:26:41;;;;;;;17.60;9.75;;;;;;;-0.20;100.00;102633.31;4972076;28;20050;-77
2023/01/25 10:29:20;;;;;;;20.70;10.50;;;;;;;-0.32;100.00;102633.38;4953891;28;20058;-78
2023/01/25 10:32:19;;;;;;;19.98;11.55;;;;;;;-0.38;100.00;102632.94;4969802;28;20042;-77
2023/01/25 10:34:49;;;;;;;19.98;11.18;;;;;;;-0.39;100.00;102626.00;4973412;28;20058;-79
2023/01/25 10:37:21;;;;;;;20.30;11.32;;;;;;;-0.34;100.00;102616.91;4956914;28;20807;-77
2023/01/25 10:40:03;;;;;;;17.08;10.63;;;;;;;-0.40;100.00;102613.97;4964476;28;20737;-78
2023/01/25 10:42:33;;;;;;;17.77;10.73;;;;;;;-0.37;100.00;102603.84;4979444;28;20821;-77
2023/01/25 10:45:00;;;;;;;19.98;11.50;;;;;;;-0.38;100.00;102607.22;4989175;28;20046;-78
2023/01/25 10:47:31;;;;;;;20.42;11.23;;;;;;;-0.41;100.00;102605.31;4992594;28;20141;-77
2023/01/25 10:49:59;;;;;;;20.95;11.32;;;;;;;-0.48;100.00;102602.22;4974194;28;20628;-77
2023/01/25 10:52:30;;;;;;;17.70;8.77;;;;;;;-0.52;100.00;102596.91;4982483;28;20046;-77
2023/01/25 10:55:16;;;;;;;18.95;10.80;;;;;;;-0.64;100.00;102598.63;4955238;28;20088;-77
2023/01/25 10:57:53;;;;;;;17.80;10.23;;;;;;;-0.65;100.00;102589.13;4950367;28;20049;-76
2023/01/25 11:00:30;;;;;;;18.58;10.73;;;;;;;-0.60;100.00;102586.88;4966042;28;20731;-78
2023/01/25 11:02:57;;;;;;;18.08;8.30;;;;;;;-0.52;100.00;102585.72;4960465;28;20109;-79
2023/01/25 11:05:36;;;;;;;17.65;10.25;;;;;;;-0.50;100.00;102581.56;4980191;28;20398;-76
2023/01/25 11:08:24;;;;;;;18.83;9.90;;;;;;;-0.40;100.00;102573.66;4951332;28;20051;-76
2023/01/25 11:10:51;;;;;;;12.98;8.25;;;;;;;-0.32;100.00;102578.44;4966233;28;20112;-77
2023/01/25 11:13:23;;;;;;;17.58;10.60;;;;;;;-0.28;100.00;102583.00;4965637;28;20125;-76
2023/01/25 11:15:54;;;;;;;17.52;9.77;;;;;;;-0.21;100.00;102567.16;4969957;28;20497;-78
2023/01/25 11:18:27;;;;;;;17.23;9.10;;;;;;;-0.22;100.00;102555.97;4981628;28;20056;-77
2023/01/25 11:21:17;;;;;;;14.43;8.43;;;;;;;-0.24;100.00;102561.81;4972530;28;20089;-78
2023/01/25 11:24:00;;;;;;;16.65;8.15;;;;;;;-0.30;100.00;102558.84;4938359;28;20587;-78
2023/01/25 11:26:27;;;;;;;13.95;8.88;;;;;;;-0.32;100.00;102557.84;4962025;28;20042;-77
2023/01/25 11:29:18;;;;;;;17.90;8.55;;;;;;;-0.34;100.00;102550.91;4933637;28;20050;-77
2023/01/25 11:31:52;;;;;;;13.60;8.80;;;;;;;-0.38;100.00;102543.78;4951095;28;20049;-77
2023/01/25 11:34:24;;;;;;;11.93;7.80;;;;;;;-0.34;100.00;102540.63;4945630;28;20046;-77
2023/01/25 11:37:22;;;;;;;13.98;8.02;;;;;;;-0.40;100.00;102534.19;4953715;28;20065;-75
2023/01/25 11:40:23;;;;;;;18.35;8.85;;;;;;;-0.38;100.00;102524.88;4951952;28;20083;-78